createdAt,value
2017-12-21T00:00:17.274Z,22.75
2017-12-21T00:02:45.669Z,24.80
2017-12-21T00:05:14.832Z,23.48
2017-12-21T00:07:43.232Z,26.65
2017-12-21T00:10:12.443Z,41.08
2017-12-21T00:12:40.831Z,23.87
2017-12-21T00:15:10.002Z,29.17
2017-12-21T00:17:38.378Z,25.00
2017-12-21T00:20:06.765Z,25.02
2017-12-21T00:22:42.255Z,21.77
2017-12-21T00:25:10.647Z,22.58
2017-12-21T00:27:39.014Z,22.58
2017-12-21T00:30:07.559Z,22.65
2017-12-21T00:32:36.270Z,20.65
2017-12-21T00:35:04.650Z,19.12
2017-12-21T00:37:33.061Z,20.65
2017-12-21T00:40:01.442Z,17.60
2017-12-21T00:42:29.810Z,18.95
2017-12-21T00:44:58.221Z,20.73
2017-12-21T00:47:26.597Z,22.50
2017-12-21T00:49:54.986Z,21.70
2017-12-21T00:52:23.411Z,20.60
2017-12-21T00:54:51.782Z,21.33
2017-12-21T00:57:20.159Z,22.08
2017-12-21T00:59:48.565Z,21.35
2017-12-21T01:02:16.935Z,22.92
2017-12-21T01:04:45.326Z,20.92
2017-12-21T01:07:13.806Z,23.00
2017-12-21T01:09:42.178Z,23.85
2017-12-21T01:12:10.551Z,22.25
2017-12-21T01:14:38.971Z,21.75
2017-12-21T01:17:07.354Z,22.52
2017-12-21T01:19:35.753Z,22.13
2017-12-21T01:22:04.927Z,22.52
2017-12-21T01:24:33.334Z,20.73
2017-12-21T01:27:02.463Z,21.40
2017-12-21T01:29:30.874Z,21.00
2017-12-21T01:31:59.242Z,22.48
2017-12-21T01:34:27.614Z,19.25
2017-12-21T01:36:56.029Z,21.80
2017-12-21T01:39:24.416Z,20.27
2017-12-21T01:41:53.589Z,19.30
2017-12-21T01:44:22.018Z,18.92
2017-12-21T01:46:50.391Z,20.85
2017-12-21T01:49:18.787Z,21.92
2017-12-21T01:51:47.202Z,20.70
2017-12-21T01:54:15.600Z,22.45
2017-12-21T01:56:43.961Z,21.02
2017-12-21T01:59:12.379Z,19.10
2017-12-21T02:01:40.766Z,22.45
2017-12-21T02:04:09.134Z,22.92
2017-12-21T02:06:38.312Z,19.45
2017-12-21T02:09:07.452Z,18.12
2017-12-21T02:11:35.857Z,19.45
2017-12-21T02:14:04.273Z,20.80
2017-12-21T02:16:33.404Z,21.30
2017-12-21T02:19:01.796Z,18.08
2017-12-21T02:21:30.223Z,18.48
2017-12-21T02:23:59.372Z,18.35
2017-12-21T02:26:27.757Z,18.62
2017-12-21T02:28:56.179Z,18.33
2017-12-21T02:31:25.327Z,20.23
2017-12-21T02:33:53.706Z,20.33
2017-12-21T02:36:22.124Z,19.98
2017-12-21T02:38:50.498Z,20.02
2017-12-21T02:41:18.919Z,19.23
2017-12-21T02:43:47.340Z,19.70
2017-12-21T02:46:15.723Z,18.02
2017-12-21T02:48:45.647Z,19.42
2017-12-21T02:51:14.087Z,20.50
2017-12-21T02:53:42.457Z,20.85
2017-12-21T02:56:10.838Z,20.15
2017-12-21T02:58:39.324Z,21.65
2017-12-21T03:01:07.708Z,20.85
2017-12-21T03:03:36.085Z,21.50
2017-12-21T03:06:04.489Z,21.08
2017-12-21T03:08:32.910Z,18.87
2017-12-21T03:11:02.066Z,19.73
2017-12-21T03:13:30.514Z,19.23
2017-12-21T03:15:58.894Z,19.77
2017-12-21T03:18:27.268Z,20.92
2017-12-21T03:20:55.692Z,22.20
2017-12-21T03:23:24.082Z,21.77
2017-12-21T03:25:52.441Z,25.23
2017-12-21T03:28:20.849Z,22.15
2017-12-21T03:30:49.987Z,21.48
2017-12-21T03:33:18.378Z,21.23
2017-12-21T03:35:46.791Z,22.35
2017-12-21T03:38:15.215Z,20.55
2017-12-21T03:40:43.591Z,22.40
2017-12-21T03:43:12.010Z,23.27
2017-12-21T03:45:40.409Z,21.77
2017-12-21T03:48:08.785Z,21.45
2017-12-21T03:50:37.206Z,24.92
2017-12-21T03:53:05.583Z,21.62
2017-12-21T03:55:33.970Z,23.48
2017-12-21T03:58:02.441Z,24.80
2017-12-21T04:00:30.852Z,25.17
2017-12-21T04:02:59.236Z,23.42
2017-12-21T04:05:27.682Z,23.15
2017-12-21T04:07:56.062Z,24.33
2017-12-21T04:10:24.435Z,23.48
2017-12-21T04:12:52.860Z,21.80
2017-12-21T04:15:21.270Z,25.48
2017-12-21T04:17:50.482Z,22.90
2017-12-21T04:20:18.877Z,22.70
2017-12-21T04:22:47.250Z,23.92
2017-12-21T04:25:15.630Z,22.37
2017-12-21T04:27:44.081Z,23.15
2017-12-21T04:30:13.218Z,22.62
2017-12-21T04:32:41.635Z,22.75
2017-12-21T04:35:10.020Z,24.60
2017-12-21T04:37:38.401Z,24.80
2017-12-21T04:40:06.772Z,23.40
2017-12-21T04:42:35.187Z,23.35
2017-12-21T04:45:03.563Z,25.67
2017-12-21T04:47:31.934Z,22.60
2017-12-21T04:50:01.376Z,24.00
2017-12-21T04:52:29.766Z,21.87
2017-12-21T04:54:58.158Z,21.45
2017-12-21T04:57:26.579Z,21.83
2017-12-21T04:59:54.962Z,22.62
2017-12-21T05:02:23.335Z,20.92
2017-12-21T05:04:51.761Z,21.87
2017-12-21T05:07:20.132Z,22.73
2017-12-21T05:09:48.515Z,23.25
2017-12-21T05:12:16.945Z,22.50
2017-12-21T05:14:46.082Z,23.00
2017-12-21T05:17:14.463Z,21.02
2017-12-21T05:19:42.866Z,23.30
2017-12-21T05:22:11.324Z,22.75
2017-12-21T05:24:39.697Z,22.45
2017-12-21T05:27:08.134Z,22.42
2017-12-21T05:29:37.286Z,22.35
2017-12-21T05:32:05.995Z,22.02
2017-12-21T05:34:34.424Z,21.73
2017-12-21T05:37:02.801Z,22.50
2017-12-21T05:39:31.176Z,22.80
2017-12-21T05:41:59.576Z,22.50
2017-12-21T05:44:27.958Z,22.65
2017-12-21T05:46:56.331Z,22.85
2017-12-21T05:49:24.726Z,22.80
2017-12-21T05:51:53.210Z,23.87
2017-12-21T05:54:21.603Z,20.85
2017-12-21T05:56:50.024Z,21.33
2017-12-21T05:59:18.400Z,20.70
2017-12-21T06:01:46.782Z,21.40
2017-12-21T06:04:15.199Z,23.95
2017-12-21T06:06:43.580Z,21.70
2017-12-21T06:09:11.967Z,19.70
2017-12-21T06:11:40.382Z,20.95
2017-12-21T06:14:08.762Z,19.67
2017-12-21T06:16:37.911Z,20.25
2017-12-21T06:19:06.308Z,21.65
2017-12-21T06:21:34.679Z,21.05
2017-12-21T06:24:03.107Z,19.60
2017-12-21T06:26:31.501Z,22.48
2017-12-21T06:28:59.869Z,22.13
2017-12-21T06:31:28.234Z,19.67
2017-12-21T06:33:56.649Z,19.67
2017-12-21T06:36:25.031Z,21.98
2017-12-21T06:38:53.414Z,22.02
2017-12-21T06:41:21.829Z,20.50
2017-12-21T06:43:50.966Z,22.90
2017-12-21T06:46:19.337Z,20.67
2017-12-21T06:48:47.742Z,21.08
2017-12-21T06:51:16.125Z,23.17
2017-12-21T06:53:44.502Z,23.40
2017-12-21T06:56:12.958Z,22.65
2017-12-21T06:58:41.330Z,23.50
2017-12-21T07:01:09.703Z,23.33
2017-12-21T07:03:38.107Z,22.65
2017-12-21T07:06:06.487Z,23.35
2017-12-21T07:08:34.865Z,20.85
2017-12-21T07:11:03.266Z,20.95
2017-12-21T07:13:31.645Z,22.50
2017-12-21T07:16:00.018Z,22.40
2017-12-21T07:18:28.432Z,20.83
2017-12-21T07:20:57.566Z,18.62
2017-12-21T07:23:25.954Z,20.70
2017-12-21T07:25:54.367Z,19.55
2017-12-21T07:28:22.745Z,19.62
2017-12-21T07:30:51.130Z,19.05
2017-12-21T07:33:19.534Z,19.83
2017-12-21T07:35:47.922Z,19.45
2017-12-21T07:38:16.312Z,19.98
2017-12-21T07:40:44.715Z,19.27
2017-12-21T07:43:13.116Z,16.98
2017-12-21T07:45:41.485Z,17.55
2017-12-21T07:48:09.916Z,15.32
2017-12-21T07:50:38.296Z,17.40
2017-12-21T07:53:06.662Z,15.15
2017-12-21T07:55:35.076Z,15.57
2017-12-21T07:58:03.459Z,13.95
2017-12-21T08:00:31.823Z,13.25
2017-12-21T08:03:00.322Z,16.45
2017-12-21T08:05:29.621Z,12.75
2017-12-21T08:07:58.000Z,13.88
2017-12-21T08:10:26.419Z,13.48
2017-12-21T08:12:55.555Z,12.60
2017-12-21T08:15:23.937Z,13.30
2017-12-21T08:17:52.413Z,13.40
2017-12-21T08:20:20.836Z,14.02
2017-12-21T08:22:49.209Z,12.88
2017-12-21T08:25:17.626Z,14.15
2017-12-21T08:27:46.781Z,13.90
2017-12-21T08:30:15.147Z,13.18
2017-12-21T08:32:43.585Z,12.23
2017-12-21T08:35:11.950Z,11.32
2017-12-21T08:37:41.082Z,12.30
2017-12-21T08:40:09.498Z,11.48
2017-12-21T08:42:37.862Z,11.45
2017-12-21T08:45:06.251Z,11.93
2017-12-21T08:47:34.795Z,9.70
2017-12-21T08:50:03.166Z,10.48
2017-12-21T08:52:31.538Z,10.05
2017-12-21T08:54:59.953Z,9.40
2017-12-21T08:57:28.312Z,9.35
2017-12-21T08:59:56.680Z,11.20
2017-12-21T09:02:25.086Z,11.00
2017-12-21T09:04:53.458Z,9.82
2017-12-21T09:07:21.826Z,10.43
2017-12-21T09:09:50.238Z,9.45
2017-12-21T09:12:18.615Z,8.52
2017-12-21T09:14:46.999Z,9.02
2017-12-21T09:17:15.399Z,9.32
2017-12-21T09:19:44.535Z,8.80
2017-12-21T09:22:12.894Z,7.93
2017-12-21T09:24:41.434Z,7.82
2017-12-21T09:27:09.799Z,7.85
2017-12-21T09:29:38.951Z,8.05
2017-12-21T09:32:07.361Z,9.25
2017-12-21T09:34:35.719Z,8.70
2017-12-21T09:37:04.086Z,7.60
2017-12-21T09:39:32.517Z,7.53
2017-12-21T09:42:00.893Z,8.50
2017-12-21T09:44:29.260Z,7.70
2017-12-21T09:46:57.655Z,9.35
2017-12-21T09:49:26.785Z,8.50
2017-12-21T09:51:55.922Z,8.05
2017-12-21T09:54:24.323Z,9.70
2017-12-21T09:56:52.713Z,9.77
2017-12-21T09:59:21.083Z,10.70
2017-12-21T10:01:49.502Z,8.25
2017-12-21T10:04:18.635Z,8.18
2017-12-21T10:06:47.011Z,8.05
2017-12-21T10:09:15.416Z,9.10
2017-12-21T10:11:43.796Z,8.00
2017-12-21T10:14:12.175Z,8.55
2017-12-21T10:16:40.612Z,8.65
2017-12-21T10:19:08.973Z,7.90
2017-12-21T10:21:38.107Z,7.82
2017-12-21T10:24:06.519Z,8.40
2017-12-21T10:26:34.906Z,7.40
2017-12-21T10:29:04.036Z,7.55
2017-12-21T10:31:32.468Z,8.02
2017-12-21T10:34:00.836Z,7.70
2017-12-21T10:36:29.200Z,7.43
2017-12-21T10:38:57.593Z,6.47
2017-12-21T10:41:25.965Z,7.32
2017-12-21T10:43:54.334Z,6.35
2017-12-21T10:46:22.825Z,6.32
2017-12-21T10:48:51.194Z,7.30
2017-12-21T10:51:19.581Z,6.90
2017-12-21T10:53:47.977Z,6.93
2017-12-21T10:56:16.343Z,6.40
2017-12-21T10:58:44.722Z,7.10
2017-12-21T11:01:13.125Z,6.62
2017-12-21T11:03:42.262Z,6.40
2017-12-21T11:06:10.668Z,6.78
2017-12-21T11:08:39.446Z,7.10
2017-12-21T11:11:07.844Z,5.32
2017-12-21T11:13:36.218Z,6.60
2017-12-21T11:16:04.624Z,6.82
2017-12-21T11:18:32.989Z,5.35
2017-12-21T11:21:01.350Z,6.15
2017-12-21T11:23:29.756Z,6.05
2017-12-21T11:25:58.944Z,5.97
2017-12-21T11:28:27.308Z,6.55
2017-12-21T11:30:55.733Z,6.95
2017-12-21T11:33:24.111Z,6.05
2017-12-21T11:35:52.518Z,6.35
2017-12-21T11:38:20.932Z,5.80
2017-12-21T11:40:49.306Z,6.05
2017-12-21T11:43:17.696Z,6.47
2017-12-21T11:45:46.104Z,6.30
2017-12-21T11:48:14.481Z,6.22
2017-12-21T11:50:42.864Z,5.93
2017-12-21T11:53:11.296Z,5.93
2017-12-21T11:55:39.681Z,6.75
2017-12-21T11:58:08.048Z,6.80
2017-12-21T12:00:37.251Z,6.82
2017-12-21T12:03:05.639Z,6.53
2017-12-21T12:05:34.009Z,7.15
2017-12-21T12:08:02.466Z,6.35
2017-12-21T12:10:30.839Z,7.00
2017-12-21T12:12:59.228Z,5.65
2017-12-21T12:15:27.673Z,6.70
2017-12-21T12:17:56.054Z,6.43
2017-12-21T12:20:24.427Z,6.10
2017-12-21T12:22:52.854Z,6.47
2017-12-21T12:25:21.224Z,6.53
2017-12-21T12:27:49.602Z,6.90
2017-12-21T12:30:17.994Z,5.93
2017-12-21T12:32:47.141Z,6.57
2017-12-21T12:35:15.502Z,6.93
2017-12-21T12:37:44.698Z,6.78
2017-12-21T12:40:13.827Z,6.43
2017-12-21T12:42:42.200Z,5.82
2017-12-21T12:45:10.799Z,5.80
2017-12-21T12:47:39.182Z,6.50
2017-12-21T12:50:07.547Z,7.05
2017-12-21T12:52:35.957Z,6.20
2017-12-21T12:55:04.326Z,5.32
2017-12-21T12:57:32.692Z,5.85
2017-12-21T13:00:01.097Z,6.30
2017-12-21T13:02:29.467Z,7.20
2017-12-21T13:04:57.848Z,6.53
2017-12-21T13:07:26.241Z,6.90
2017-12-21T13:09:54.604Z,5.47
2017-12-21T13:12:23.743Z,6.55
2017-12-21T13:14:52.930Z,7.75
2017-12-21T13:17:22.085Z,7.47
2017-12-21T13:19:50.476Z,7.20
2017-12-21T13:22:18.982Z,6.50
2017-12-21T13:24:47.384Z,8.98
2017-12-21T13:27:15.957Z,8.48
2017-12-21T13:29:45.256Z,9.27
2017-12-21T13:32:14.862Z,8.35
2017-12-21T13:34:45.235Z,10.35
2017-12-21T13:37:14.386Z,8.40
2017-12-21T13:39:43.724Z,9.02
2017-12-21T13:42:12.238Z,9.80
2017-12-21T13:44:41.137Z,10.50
2017-12-21T13:47:09.894Z,9.05
2017-12-21T13:49:38.431Z,9.88
2017-12-21T13:52:07.168Z,9.23
2017-12-21T13:54:35.608Z,10.30
2017-12-21T13:57:04.418Z,10.15
2017-12-21T13:59:33.103Z,8.88
2017-12-21T14:02:01.728Z,8.55
2017-12-21T14:04:30.323Z,9.02
2017-12-21T14:06:58.791Z,9.45
2017-12-21T14:09:27.413Z,9.60
2017-12-21T14:11:56.025Z,9.98
2017-12-21T14:14:24.600Z,8.68
2017-12-21T14:16:54.190Z,9.52
2017-12-21T14:19:22.857Z,8.80
2017-12-21T14:21:52.181Z,11.02
2017-12-21T14:24:21.083Z,10.90
2017-12-21T14:26:49.506Z,10.05
2017-12-21T14:29:18.150Z,10.82
2017-12-21T14:31:46.751Z,10.55
2017-12-21T14:34:15.114Z,9.73
2017-12-21T14:36:43.510Z,12.40
2017-12-21T14:39:11.894Z,13.20
2017-12-21T14:41:40.273Z,11.82
2017-12-21T14:44:08.675Z,11.82
2017-12-21T14:46:37.055Z,13.73
2017-12-21T14:49:05.415Z,12.88
2017-12-21T14:51:33.854Z,14.48
2017-12-21T14:54:02.284Z,12.73
2017-12-21T14:56:30.661Z,15.15
2017-12-21T14:58:59.216Z,17.00
2017-12-21T15:01:28.496Z,15.20
2017-12-21T15:03:57.240Z,16.15
2017-12-21T15:06:26.604Z,15.05
2017-12-21T15:08:55.379Z,16.67
2017-12-21T15:11:24.154Z,16.37
2017-12-21T15:13:52.827Z,18.45
2017-12-21T15:16:21.584Z,16.73
2017-12-21T15:18:51.437Z,17.75
2017-12-21T15:21:20.648Z,16.35
2017-12-21T15:23:49.340Z,17.35
2017-12-21T15:26:18.047Z,17.58
2017-12-21T15:28:46.489Z,16.50
2017-12-21T15:31:14.928Z,16.37
2017-12-21T15:33:43.297Z,16.85
2017-12-21T15:36:11.786Z,17.83
2017-12-21T15:38:40.196Z,17.75
2017-12-21T15:41:08.617Z,18.42
2017-12-21T15:43:37.337Z,16.55
2017-12-21T15:46:05.721Z,18.70
2017-12-21T15:48:34.098Z,17.90
2017-12-21T15:51:03.439Z,18.02
2017-12-21T15:53:31.835Z,17.62
2017-12-21T15:56:00.252Z,18.05
2017-12-21T15:58:28.730Z,18.30
2017-12-21T16:00:57.106Z,16.12
2017-12-21T16:03:25.801Z,16.17
2017-12-21T16:05:54.631Z,16.48
2017-12-21T16:08:23.423Z,18.02
2017-12-21T16:10:52.007Z,15.57
2017-12-21T16:13:20.816Z,16.05
2017-12-21T16:15:49.341Z,15.60
2017-12-21T16:18:18.048Z,17.10
2017-12-21T16:20:46.561Z,16.60
2017-12-21T16:23:15.011Z,16.17
2017-12-21T16:25:43.523Z,18.20
2017-12-21T16:28:12.159Z,17.83
2017-12-21T16:30:41.612Z,17.40
2017-12-21T16:33:10.108Z,18.10
2017-12-21T16:35:38.566Z,20.00
2017-12-21T16:38:07.218Z,18.67
2017-12-21T16:40:35.600Z,19.73
2017-12-21T16:43:04.060Z,18.35
2017-12-21T16:45:33.443Z,20.42
2017-12-21T16:48:02.988Z,18.30
2017-12-21T16:50:31.925Z,17.83
2017-12-21T16:53:00.802Z,17.10
2017-12-21T16:55:30.060Z,19.00
2017-12-21T16:57:58.850Z,19.30
2017-12-21T17:00:27.585Z,19.08
2017-12-21T17:02:56.379Z,19.30
2017-12-21T17:05:25.306Z,21.15
2017-12-21T17:07:54.381Z,17.95
2017-12-21T17:10:23.985Z,19.37
2017-12-21T17:12:53.441Z,18.23
2017-12-21T17:15:21.820Z,20.05
2017-12-21T17:17:50.315Z,20.55
2017-12-21T17:20:18.755Z,17.85
2017-12-21T17:22:47.249Z,22.17
2017-12-21T17:25:15.621Z,20.15
2017-12-21T17:27:44.062Z,22.20
2017-12-21T17:30:12.613Z,19.50
2017-12-21T17:32:41.000Z,21.50
2017-12-21T17:35:09.508Z,20.25
2017-12-21T17:37:37.878Z,23.60
2017-12-21T17:40:06.263Z,21.37
2017-12-21T17:42:34.746Z,24.70
2017-12-21T17:45:03.220Z,23.33
2017-12-21T17:47:32.853Z,23.05
2017-12-21T17:50:02.285Z,23.70
2017-12-21T17:52:30.659Z,23.15
2017-12-21T17:54:59.339Z,26.17
2017-12-21T17:57:28.602Z,22.67
2017-12-21T17:59:57.274Z,25.50
2017-12-21T18:02:26.935Z,26.23
2017-12-21T18:04:55.643Z,24.05
2017-12-21T18:07:24.288Z,26.20
2017-12-21T18:09:53.872Z,25.92
2017-12-21T18:12:23.616Z,24.37
2017-12-21T18:14:52.348Z,26.98
2017-12-21T18:17:20.923Z,28.05
2017-12-21T18:19:49.895Z,25.77
2017-12-21T18:22:21.001Z,27.35
2017-12-21T18:24:49.901Z,28.40
2017-12-21T18:27:18.623Z,26.45
2017-12-21T18:29:47.372Z,27.77
2017-12-21T18:32:16.543Z,27.15
2017-12-21T18:34:45.764Z,30.20
2017-12-21T18:37:14.927Z,29.83
2017-12-21T18:39:43.593Z,27.67
2017-12-21T18:42:12.041Z,28.60
2017-12-21T18:44:40.541Z,27.40
2017-12-21T18:47:08.998Z,30.98
2017-12-21T18:49:37.720Z,29.33
2017-12-21T18:52:06.436Z,29.27
2017-12-21T18:54:35.661Z,27.23
2017-12-21T18:57:05.309Z,27.23
2017-12-21T18:59:33.891Z,30.15
2017-12-21T19:02:02.406Z,27.58
2017-12-21T19:04:31.178Z,28.67
2017-12-21T19:06:59.968Z,33.22
2017-12-21T19:09:29.636Z,28.58
2017-12-21T19:11:58.373Z,31.70
2017-12-21T19:14:26.798Z,32.65
2017-12-21T19:16:55.163Z,29.27
2017-12-21T19:19:24.670Z,33.60
2017-12-21T19:21:53.069Z,31.27
2017-12-21T19:24:21.468Z,32.65
2017-12-21T19:26:49.958Z,33.83
2017-12-21T19:29:18.380Z,34.40
2017-12-21T19:31:47.551Z,32.85
2017-12-21T19:34:16.779Z,33.30
2017-12-21T19:36:46.103Z,34.13
2017-12-21T19:39:14.607Z,34.40
2017-12-21T19:41:43.578Z,35.80
2017-12-21T19:44:11.972Z,34.30
2017-12-21T19:46:40.340Z,34.28
2017-12-21T19:49:08.963Z,33.38
2017-12-21T19:51:37.398Z,34.70
2017-12-21T19:54:06.243Z,35.72
2017-12-21T19:56:35.540Z,36.70
2017-12-21T19:59:04.385Z,34.00
2017-12-21T20:01:33.019Z,31.15
2017-12-21T20:04:01.977Z,36.75
2017-12-21T20:06:31.721Z,33.53
2017-12-21T20:09:00.453Z,35.17
2017-12-21T20:11:29.254Z,36.55
2017-12-21T20:13:57.741Z,32.17
2017-12-21T20:16:26.410Z,31.23
2017-12-21T20:18:55.343Z,33.22
2017-12-21T20:21:24.169Z,31.70
2017-12-21T20:23:52.947Z,31.77
2017-12-21T20:26:21.846Z,32.97
2017-12-21T20:28:50.580Z,29.83
2017-12-21T20:31:19.316Z,32.17
2017-12-21T20:33:48.253Z,32.63
2017-12-21T20:36:16.814Z,31.05
2017-12-21T20:38:45.584Z,32.78
2017-12-21T20:41:14.437Z,34.47
2017-12-21T20:43:43.834Z,36.15
2017-12-21T20:46:12.648Z,34.40
2017-12-21T20:48:42.036Z,36.42
2017-12-21T20:51:10.676Z,37.80
2017-12-21T20:53:39.290Z,36.78
2017-12-21T20:56:07.764Z,36.92
2017-12-21T20:58:36.174Z,36.10
2017-12-21T21:01:04.610Z,40.78
2017-12-21T21:03:33.220Z,40.40
2017-12-21T21:06:01.656Z,38.58
2017-12-21T21:08:30.118Z,41.97
2017-12-21T21:10:59.389Z,42.40
2017-12-21T21:13:27.762Z,41.67
2017-12-21T21:15:56.133Z,41.50
2017-12-21T21:18:24.629Z,41.08
2017-12-21T21:20:53.071Z,41.55
2017-12-21T21:23:21.438Z,42.92
2017-12-21T21:25:49.867Z,43.15
2017-12-21T21:28:18.240Z,44.55
2017-12-21T21:30:47.533Z,41.22
2017-12-21T21:33:17.371Z,44.65
2017-12-21T21:35:46.596Z,42.47
2017-12-21T21:38:15.040Z,40.58
2017-12-21T21:40:44.419Z,43.22
2017-12-21T21:43:13.771Z,44.38
2017-12-21T21:45:42.436Z,43.33
2017-12-21T21:48:11.910Z,40.80
2017-12-21T21:50:40.346Z,40.28
2017-12-21T21:53:08.714Z,41.65
2017-12-21T21:55:37.149Z,41.28
2017-12-21T21:58:05.525Z,40.22
2017-12-21T22:00:33.909Z,40.50
2017-12-21T22:03:02.667Z,39.15
2017-12-21T22:05:31.091Z,39.15
2017-12-21T22:07:59.461Z,37.00
2017-12-21T22:10:28.204Z,39.25
2017-12-21T22:12:56.627Z,37.15
2017-12-21T22:15:25.107Z,40.25
2017-12-21T22:17:53.513Z,37.70
2017-12-21T22:20:22.657Z,37.75
2017-12-21T22:22:51.039Z,43.10
2017-12-21T22:25:19.449Z,41.92
2017-12-21T22:27:48.590Z,40.97
2017-12-21T22:30:16.978Z,42.22
2017-12-21T22:32:45.390Z,40.95
2017-12-21T22:35:13.783Z,42.28
2017-12-21T22:37:42.171Z,37.55
2017-12-21T22:40:11.378Z,43.38
2017-12-21T22:42:40.526Z,42.00
2017-12-21T22:45:08.912Z,40.38
2017-12-21T22:47:38.250Z,38.15
2017-12-21T22:50:07.393Z,41.05
2017-12-21T22:52:35.842Z,38.30
2017-12-21T22:55:04.245Z,37.38
2017-12-21T22:57:32.615Z,35.40
2017-12-21T23:00:00.982Z,39.22
2017-12-21T23:02:29.391Z,38.60
2017-12-21T23:04:57.762Z,36.85
2017-12-21T23:07:26.162Z,42.78
2017-12-21T23:09:54.562Z,39.53
2017-12-21T23:12:22.944Z,41.08
2017-12-21T23:14:52.084Z,40.97
2017-12-21T23:17:20.479Z,40.03
2017-12-21T23:19:48.865Z,42.13
2017-12-21T23:22:17.229Z,39.97
2017-12-21T23:24:47.482Z,42.55
2017-12-21T23:27:15.857Z,40.30
2017-12-21T23:29:44.247Z,40.90
2017-12-21T23:32:13.429Z,40.88
2017-12-21T23:34:41.810Z,39.30
2017-12-21T23:37:10.190Z,39.33
2017-12-21T23:39:38.607Z,36.92
2017-12-21T23:42:06.987Z,40.88
2017-12-21T23:44:35.358Z,38.17
2017-12-21T23:47:04.569Z,36.35
2017-12-21T23:49:32.942Z,36.28
2017-12-21T23:52:01.334Z,34.88
2017-12-21T23:54:29.772Z,37.72
2017-12-21T23:56:58.930Z,38.05
2017-12-21T23:59:27.309Z,35.33
